Pagrindinis puslapis
METAR-TAF:

METAR-TAF

Oro uostai :

Kitas, Ekvadoras

platuma: 0-06-48S, ilguma: 78-21-31W, Aukštis: 2400 m

Dabartinis oras

Ataskaita buvo paskelbta 40 minutes, ne 10:00 UTC
Vėjas 3 kt iš Pietų/Pietryčių
Temperatūra 7°C
Drėgmė 81%
Slėgis 1026 hPa
Matomumas 10 km arba daugiau
nėra debesų žemiau 1500 m ir nėra kamuolinių lietaus debesų

METAR: SEQM 251000Z 15003KT CAVOK 07/04 Q1026 NOSIG RMK A3031

Laikas: 05:40 (10:40 UTC)

Prognozė

Ataskaita buvo paskelbta 6 valandos ir 20 minutes, ne 04:20 UTC
Prognozė galioja nuo 25 metu 06 UTC su 26 metu 06 UTC
Vėjas 3 kt nuo kintamojo kryptimis
Matomumas 10 km arba daugiau
nėra debesų žemiau 1500 m ir nėra kamuolinių lietaus debesų
Tapsmas
nuo 25 metu 10 UTC su 25 metu 11 UTC
Mažai debesys ne aukštis 3300 ft
Tapsmas
nuo 25 metu 18 UTC su 25 metu 19 UTC
Vėjas 10 kt iš Pietų/Pietryčių
Tapsmas
nuo 25 metu 22 UTC su 25 metu 23 UTC
Vėjas 4 kt iš Šiaurės Rytų

TAF: SEQM 250420Z 2506/2606 VRB03KT CAVOK BECMG 2510/2511 FEW033 BECMG 2518/2519 15010KT BECMG 2522/2523 04004KT TX25/2519Z TN07/2511Z

Orai ataskaitas ir orų prognozės (METAR, TAF).

turimą stotys yra geltonos ir raudonos taškus žemėlapyje.

Perkelti pele per norėdami pamatyti stoties vardą.

Tada spustelėkite, norėdami matyti oro stebėjimo ir prognozės.

Norėdami pakeisti žemėlapį: spustelėkite ant žalios mygtukų su juodo kryžiaus žemyn,; žalią mygtuką su brūkšneliu, jei norite nutolinti; arba žalių rodyklių gretimoms žemėlapius.


METAR-TAF: